Bookmark and Share
Track history (hours):
 

Hanjin Phoenix

Last reported at 2014-Apr-17 00:00 UTC. Time now 2014-Apr-17 06:52 UTC.
Position N 44°54' W 028°48'.

Length 282.1 m; beam 32.2 m; draft 13 m.

Type: Ship (hazmat cat A). MMSI: 636090671.

Wind from 040 at 20 knots

Waves 2.5 meters (8 feet), 9 second period

Barometer 1022.0 mb
Air temperature 12.5 ° C
Visibility: greater than 5.4 NM
Dewpoint 11.3 ° C
Water temperature 13.1 ° C

NotesDate/timePositionNaut miles runAvg speedWind from/ knotsBaromVisibWave heightAir tempDewpointWater temp
2014-Apr-17 00:00N 44°54' W 028°48'94218.3 040 / 201022.0 5.4 2.512.511.313.1
2014-Apr-14 20:34N 49°16' W 006°39'17720.6
2014-Apr-14 12:00N 50°06' W 002°18'2610.6 360 / 101027.027.0 0.515.5 8.210.1
2014-Apr-14 09:33N 50°12' W 001°39'1615.8
2014-Apr-14 08:34N 50°17' W 001°15'1414.1
2014-Apr-14 07:33N 50°20' W 000°54'1313.3
2014-Apr-14 06:33N 50°23' W 000°33'1414.0
2014-Apr-14 05:33N 50°26' W 000°12'12117.2
2014-Apr-13 22:33N 51°41' E 002°18'14416.1
2014-Apr-13 13:33N 53°31' E 004°52'1716.8
2014-Apr-13 12:33N 53°37' E 005°19'1716.7
2014-Apr-13 11:33N 53°43' E 005°46'3516.0
2014-Apr-13 09:24N 53°53' E 006°41'1315.2
2014-Apr-13 08:33N 53°56' E 007°03'1514.9
2014-Apr-13 07:33N 53°59' E 007°27'1111.2
2014-Apr-13 06:33N 53°54' E 007°44'1414.2
2014-Apr-13 05:34N 53°49' E 008°07'1716.8
2014-Apr-13 04:33N 53°38' E 008°28'4 3.4
2014-Apr-13 03:31N 53°35' E 008°32'0 0.0
2014-Apr-13 02:32N 53°35' E 008°32'0 0.0
2014-Apr-13 01:31N 53°35' E 008°32'0 0.0
2014-Apr-13 00:32N 53°35' E 008°32'0 0.0
2014-Apr-12 23:31N 53°35' E 008°32'0 0.0
2014-Apr-12 22:31N 53°35' E 008°32'0 0.0
2014-Apr-12 21:32N 53°35' E 008°32'0 0.0
2014-Apr-12 20:33N 53°35' E 008°32'0 0.0
2014-Apr-12 19:31N 53°35' E 008°32'0 0.0
2014-Apr-12 18:33N 53°35' E 008°32'0 0.0
2014-Apr-12 17:32N 53°35' E 008°32'0 0.0
2014-Apr-12 16:28N 53°35' E 008°32'0 0.0
2014-Apr-12 15:31N 53°35' E 008°32'0 0.0
2014-Apr-12 14:31N 53°35' E 008°32'0 0.0
2014-Apr-12 13:31N 53°35' E 008°32'0 0.0
2014-Apr-12 12:31N 53°35' E 008°32'0 0.0
2014-Apr-12 11:31N 53°35' E 008°32'0 0.0
2014-Apr-12 10:28N 53°35' E 008°32'0 0.0
2014-Apr-12 09:32N 53°35' E 008°32'0 0.0
2014-Apr-12 08:28N 53°35' E 008°32'0 0.0
2014-Apr-12 07:32N 53°35' E 008°32'0 0.0
2014-Apr-12 06:31N 53°35' E 008°32'0 0.0
2014-Apr-12 05:31N 53°35' E 008°32'0 0.0
2014-Apr-12 04:31N 53°35' E 008°32'0 0.0
2014-Apr-12 03:33N 53°35' E 008°32'9 8.9
2014-Apr-12 02:33N 53°41' E 008°21'1716.9
2014-Apr-12 01:33N 53°51' E 007°58'1212.1
2014-Apr-12 00:33N 53°53' E 007°38'4 4.2
2014-Apr-11 23:34N 53°56' E 007°33'7 7.1
2014-Apr-11 22:33N 53°53' E 007°22'10 9.8
2014-Apr-11 21:34N 53°51' E 007°06'1211.1
2014-Apr-11 20:31N 53°49' E 006°47'1111.5
2014-Apr-11 19:33N 53°46' E 006°29'1211.8
2014-Apr-11 18:34N 53°43' E 006°10'1312.6
2014-Apr-11 17:34N 53°39' E 005°50'1313.1
2014-Apr-11 16:33N 53°35' E 005°29'1313.2
2014-Apr-11 15:33N 53°30' E 005°07'1313.2
2014-Apr-11 14:34N 53°26' E 004°47'1312.9
2014-Apr-11 13:34N 53°15' E 004°35'1312.9
2014-Apr-11 12:34N 53°03' E 004°25'1313.0
2014-Apr-11 11:34N 52°52' E 004°14'1413.7
2014-Apr-11 10:33N 52°41' E 004°02'1514.7
2014-Apr-11 09:33N 52°31' E 003°44'1515.1
2014-Apr-11 08:33N 52°17' E 003°33'1515.1
2014-Apr-11 07:33N 52°03' E 003°24'1514.6
2014-Apr-11 06:33N 51°49' E 003°17'1414.1
2014-Apr-11 05:33N 51°36' E 003°10'1211.7
2014-Apr-11 04:33N 51°24' E 003°08'1817.8
2014-Apr-11 03:33N 51°26' E 003°37'1313.3
2014-Apr-11 02:33N 51°26' E 003°58'1313.2
2014-Apr-11 01:33N 51°19' E 004°16'1 1.3
2014-Apr-11 00:32N 51°18' E 004°16'0 0.0
2014-Apr-10 23:15N 51°18' E 004°16'0 0.0
2014-Apr-10 22:33N 51°18' E 004°16'0 0.0
2014-Apr-10 21:33N 51°18' E 004°16'0 0.0
2014-Apr-10 20:33N 51°18' E 004°16'0 0.0
2014-Apr-10 19:27N 51°18' E 004°16'0 0.0
2014-Apr-10 18:32N 51°18' E 004°16'0 0.0
2014-Apr-10 17:26N 51°18' E 004°16'0 0.0
2014-Apr-10 16:32N 51°18' E 004°16'0 0.0
2014-Apr-10 15:33N 51°18' E 004°16'0 0.0
2014-Apr-10 14:30N 51°18' E 004°16'0 0.0
2014-Apr-10 13:14N 51°18' E 004°16'0 0.0
2014-Apr-10 12:33N 51°18' E 004°16'0 0.0
2014-Apr-10 11:30N 51°18' E 004°16'0 0.0
2014-Apr-10 10:31N 51°18' E 004°16'0 0.0
2014-Apr-10 09:29N 51°18' E 004°16'0 0.0
2014-Apr-10 08:30N 51°18' E 004°16'0 0.0
2014-Apr-10 07:32N 51°18' E 004°16'0 0.0
2014-Apr-10 06:31N 51°18' E 004°16'0 0.0
2014-Apr-10 05:26N 51°18' E 004°16'0 0.0
2014-Apr-10 04:26N 51°18' E 004°16'0 0.0
2014-Apr-10 03:19N 51°18' E 004°16'0 0.0
2014-Apr-10 02:27N 51°18' E 004°16'0 0.0
2014-Apr-10 01:32N 51°18' E 004°16'6 6.1
2014-Apr-10 00:32N 51°24' E 004°12'10 9.7
2014-Apr-09 23:34N 51°23' E 003°57'1212.4
2014-Apr-09 22:33N 51°26' E 003°38'1616.1
2014-Apr-09 21:33N 51°24' E 003°12'1818.4
2014-Apr-09 20:33N 51°22' E 002°43'5 5.2
2014-Apr-09 19:33N 51°22' E 002°34'1514.7
2014-Apr-09 18:33N 51°17' E 002°13'1716.8
2014-Apr-09 17:33N 51°08' E 001°50'1816.4
2014-Apr-09 16:27N 50°55' E 001°29'3515.4
2014-Apr-09 14:11N 50°30' E 000°52'1116.5
2014-Apr-09 13:32N 50°25' E 000°37'2515.9
2014-Apr-09 12:00N 50°18' E 000°00'20817.4 250 / 81027.027.0 0.514.0 7.510.2
2014-Apr-09 00:00N 49°12' W 005°06'23219.3 320 / 131027.010.8 1.013.0 9.410.5
2014-Apr-08 12:00N 47°54' W 010°36'69519.3 280 / 131027.010.8 1.514.5 5.911.6
2014-Apr-07 00:00N 47°06' W 027°42'   310 / 201015.5 5.4 3.0 7.5 2.011.3

Dump ship's entire track history

sailing weather and tide predictions

Hanjin Phoenix — A8CN9 — position and weather